createdAt,value
2019-02-07T00:01:20.994Z,1.70
2019-02-07T00:04:14.696Z,1.67
2019-02-07T00:07:15.308Z,1.80
2019-02-07T00:10:17.993Z,1.50
2019-02-07T00:13:12.530Z,1.73
2019-02-07T00:16:06.692Z,1.60
2019-02-07T00:19:07.454Z,1.40
2019-02-07T00:22:01.422Z,1.43
2019-02-07T00:25:02.333Z,1.60
2019-02-07T00:28:09.725Z,1.37
2019-02-07T00:31:10.832Z,1.53
2019-02-07T00:34:08.380Z,1.70
2019-02-07T00:37:08.838Z,1.70
2019-02-07T00:40:03.005Z,1.60
2019-02-07T00:43:04.200Z,1.57
2019-02-07T00:45:58.374Z,1.57
2019-02-07T00:48:59.746Z,1.63
2019-02-07T00:51:54.686Z,1.70
2019-02-07T00:54:55.738Z,1.60
2019-02-07T00:57:49.442Z,1.50
2019-02-07T01:00:51.311Z,1.70
2019-02-07T01:03:46.727Z,1.50
2019-02-07T01:06:47.897Z,1.60
2019-02-07T01:09:42.428Z,1.60
2019-02-07T01:12:43.818Z,1.50
2019-02-07T01:15:38.150Z,1.47
2019-02-07T01:18:38.941Z,1.83
2019-02-07T01:21:33.492Z,1.70
2019-02-07T01:24:35.320Z,1.60
2019-02-07T01:27:29.754Z,1.60
2019-02-07T01:30:31.298Z,1.50
2019-02-07T01:33:24.948Z,1.70
2019-02-07T01:36:27.042Z,1.50
2019-02-07T01:39:21.666Z,1.50
2019-02-07T01:42:22.972Z,1.43
2019-02-07T01:45:18.897Z,1.80
2019-02-07T01:48:19.842Z,1.60
2019-02-07T01:51:14.296Z,1.60
2019-02-07T01:54:15.750Z,1.23
2019-02-07T01:57:22.722Z,1.40
2019-02-07T02:00:24.448Z,1.40
2019-02-07T02:03:18.784Z,1.60
2019-02-07T02:06:20.232Z,1.50
2019-02-07T02:09:14.854Z,1.13
2019-02-07T02:12:16.370Z,1.60
2019-02-07T02:15:10.994Z,1.27
2019-02-07T02:18:12.128Z,1.20
2019-02-07T02:21:06.714Z,1.30
2019-02-07T02:24:07.891Z,1.53
2019-02-07T02:27:01.635Z,1.10
2019-02-07T02:30:02.784Z,1.37
2019-02-07T02:32:57.330Z,1.60
2019-02-07T02:35:58.289Z,1.50
2019-02-07T02:38:52.667Z,1.27
2019-02-07T02:41:53.521Z,1.23
2019-02-07T02:44:48.298Z,1.20
2019-02-07T02:47:49.424Z,1.37
2019-02-07T02:50:43.581Z,1.13
2019-02-07T02:53:45.378Z,1.30
2019-02-07T02:56:39.113Z,1.20
2019-02-07T02:59:40.733Z,1.27
2019-02-07T03:02:45.515Z,1.57
2019-02-07T03:06:05.307Z,1.10
2019-02-07T03:09:19.781Z,1.50
2019-02-07T03:12:34.471Z,1.10
2019-02-07T03:15:29.338Z,1.40
2019-02-07T03:18:40.285Z,1.17
2019-02-07T03:21:45.158Z,1.30
2019-02-07T03:24:45.686Z,1.40
2019-02-07T03:27:47.035Z,1.33
2019-02-07T03:30:52.346Z,1.10
2019-02-07T03:34:02.880Z,1.10
2019-02-07T03:37:08.712Z,1.30
2019-02-07T03:40:09.155Z,0.90
2019-02-07T03:43:12.407Z,1.10
2019-02-07T03:46:27.493Z,1.03
2019-02-07T03:49:46.777Z,1.23
2019-02-07T03:52:51.849Z,1.50
2019-02-07T03:56:02.176Z,0.73
2019-02-07T03:59:14.019Z,1.03
2019-02-07T04:02:19.273Z,1.03
2019-02-07T04:05:30.517Z,1.30
2019-02-07T04:08:50.745Z,1.10
2019-02-07T04:11:55.339Z,1.20
2019-02-07T04:14:58.228Z,1.00
2019-02-07T04:18:05.230Z,1.07
2019-02-07T04:21:25.655Z,1.13
2019-02-07T04:24:24.554Z,1.00
2019-02-07T04:27:29.371Z,1.00
2019-02-07T04:30:25.289Z,1.20
2019-02-07T04:33:33.285Z,1.10
2019-02-07T04:36:28.399Z,1.20
2019-02-07T04:39:48.283Z,1.00
2019-02-07T04:42:58.927Z,0.90
2019-02-07T04:46:03.589Z,1.40
2019-02-07T04:48:58.643Z,1.00
2019-02-07T04:52:00.864Z,0.90
2019-02-07T04:54:56.966Z,1.30
2019-02-07T04:58:17.287Z,1.00
2019-02-07T05:01:12.709Z,0.97
2019-02-07T05:04:18.075Z,0.83
2019-02-07T05:07:20.366Z,1.10
2019-02-07T05:10:22.011Z,1.20
2019-02-07T05:13:17.279Z,1.13
2019-02-07T05:16:39.294Z,0.90
2019-02-07T05:19:31.947Z,0.70
2019-02-07T05:22:36.642Z,1.00
2019-02-07T05:25:40.833Z,0.90
2019-02-07T05:28:52.611Z,0.80
2019-02-07T05:31:51.004Z,0.77
2019-02-07T05:34:59.101Z,0.80
2019-02-07T05:38:11.241Z,0.70
2019-02-07T05:41:23.632Z,0.87
2019-02-07T05:44:22.330Z,0.80
2019-02-07T05:47:24.165Z,1.00
2019-02-07T05:50:35.915Z,0.80
2019-02-07T05:53:43.081Z,0.90
2019-02-07T05:56:46.092Z,1.00
2019-02-07T05:59:50.905Z,0.77
2019-02-07T06:02:46.502Z,0.83
2019-02-07T06:06:10.340Z,0.97
2019-02-07T06:09:05.800Z,0.80
2019-02-07T06:12:17.829Z,0.90
2019-02-07T06:15:14.974Z,1.00
2019-02-07T06:18:23.557Z,0.70
2019-02-07T06:21:25.360Z,0.80
2019-02-07T06:24:36.232Z,0.80
2019-02-07T06:27:47.850Z,0.80
2019-02-07T06:30:55.562Z,0.60
2019-02-07T06:33:50.862Z,0.67
2019-02-07T06:36:55.795Z,0.43
2019-02-07T06:39:59.953Z,0.70
2019-02-07T06:43:07.814Z,0.90
2019-02-07T06:46:21.876Z,0.50
2019-02-07T06:49:24.617Z,0.50
2019-02-07T06:52:20.384Z,0.50
2019-02-07T06:55:23.744Z,0.50
2019-02-07T06:58:19.874Z,0.70
2019-02-07T07:01:21.531Z,0.30
2019-02-07T07:04:29.611Z,0.70
2019-02-07T07:07:34.634Z,0.60
2019-02-07T07:10:46.160Z,0.50
2019-02-07T07:13:48.839Z,0.60
2019-02-07T07:16:46.903Z,0.60
2019-02-07T07:19:57.924Z,0.40
2019-02-07T07:23:03.150Z,0.47
2019-02-07T07:26:22.880Z,0.50
2019-02-07T07:29:19.255Z,0.70
2019-02-07T07:32:27.394Z,0.57
2019-02-07T07:35:39.041Z,0.73
2019-02-07T07:38:44.132Z,0.40
2019-02-07T07:41:39.426Z,0.50
2019-02-07T07:44:45.345Z,0.70
2019-02-07T07:47:47.287Z,0.50
2019-02-07T07:50:55.197Z,0.30
2019-02-07T07:53:50.124Z,0.50
2019-02-07T07:56:53.066Z,0.80
2019-02-07T08:00:05.312Z,0.60
2019-02-07T08:03:10.456Z,0.47
2019-02-07T08:06:05.967Z,0.40
2019-02-07T08:09:24.929Z,0.47
2019-02-07T08:12:35.913Z,0.37
2019-02-07T08:15:49.359Z,0.30
2019-02-07T08:18:54.283Z,0.50
2019-02-07T08:21:56.213Z,0.60
2019-02-07T08:24:51.551Z,0.30
2019-02-07T08:28:10.798Z,5.30
2019-02-07T08:31:06.147Z,0.63
2019-02-07T08:34:14.163Z,0.40
2019-02-07T08:37:13.854Z,0.80
2019-02-07T08:40:26.575Z,0.73
2019-02-07T08:43:31.740Z,0.40
2019-02-07T08:46:42.089Z,0.50
2019-02-07T08:49:39.667Z,0.37
2019-02-07T08:52:48.001Z,0.50
2019-02-07T08:56:00.165Z,0.80
2019-02-07T08:59:05.927Z,1.13
2019-02-07T09:02:18.225Z,0.30
2019-02-07T09:05:39.851Z,0.53
2019-02-07T09:08:34.999Z,0.93
2019-02-07T09:11:54.151Z,0.60
2019-02-07T09:14:50.095Z,0.30
2019-02-07T09:17:51.786Z,0.53
2019-02-07T09:21:05.930Z,0.73
2019-02-07T09:24:08.088Z,1.07
2019-02-07T09:27:03.340Z,1.07
2019-02-07T09:30:10.907Z,0.63
2019-02-07T09:33:12.525Z,0.47
2019-02-07T09:36:14.194Z,3.07
2019-02-07T09:39:13.652Z,0.50
2019-02-07T09:42:21.233Z,0.50
2019-02-07T09:45:21.907Z,0.47
2019-02-07T09:48:32.687Z,0.47
2019-02-07T09:51:31.561Z,1.80
2019-02-07T09:54:43.173Z,0.67
2019-02-07T09:57:57.265Z,0.50
2019-02-07T10:01:04.150Z,0.30
2019-02-07T10:04:15.266Z,0.53
2019-02-07T10:07:22.979Z,0.63
2019-02-07T10:10:47.943Z,0.83
2019-02-07T10:14:08.493Z,0.50
2019-02-07T10:17:20.238Z,0.40
2019-02-07T10:20:38.248Z,1.37
2019-02-07T10:23:42.275Z,0.40
2019-02-07T10:27:01.583Z,0.80
2019-02-07T10:30:04.940Z,0.60
2019-02-07T10:33:23.092Z,0.60
2019-02-07T10:36:37.272Z,1.00
2019-02-07T10:39:42.060Z,0.97
2019-02-07T10:42:54.142Z,0.43
2019-02-07T10:46:14.221Z,0.37
2019-02-07T10:49:12.615Z,0.70
2019-02-07T10:52:30.481Z,0.40
2019-02-07T10:55:27.340Z,0.23
2019-02-07T10:58:41.951Z,1.07
2019-02-07T11:01:54.840Z,0.60
2019-02-07T11:05:01.117Z,0.30
2019-02-07T11:07:59.993Z,0.57
2019-02-07T11:11:18.208Z,0.43
2019-02-07T11:14:16.360Z,0.43
2019-02-07T11:17:19.449Z,0.60
2019-02-07T11:20:21.284Z,0.50
2019-02-07T11:23:39.629Z,0.80
2019-02-07T11:26:40.130Z,0.33
2019-02-07T11:29:44.488Z,0.60
2019-02-07T11:32:40.201Z,0.30
2019-02-07T11:35:57.543Z,0.77
2019-02-07T11:39:05.185Z,0.50
2019-02-07T11:42:20.132Z,0.60
2019-02-07T11:45:30.706Z,1.10
2019-02-07T11:48:49.708Z,0.50
2019-02-07T11:51:52.250Z,1.00
2019-02-07T11:55:00.858Z,0.53
2019-02-07T11:58:02.323Z,0.70
2019-02-07T12:01:10.390Z,0.83
2019-02-07T12:04:09.111Z,0.47
2019-02-07T12:07:14.035Z,1.93
2019-02-07T12:10:19.332Z,0.33
2019-02-07T12:13:21.884Z,0.70
2019-02-07T12:16:33.322Z,0.57
2019-02-07T12:19:38.228Z,1.80
2019-02-07T12:22:34.130Z,0.30
2019-02-07T12:25:36.160Z,0.47
2019-02-07T12:28:31.397Z,0.30
2019-02-07T12:31:38.906Z,0.70
2019-02-07T12:34:45.974Z,0.43
2019-02-07T12:37:48.596Z,0.83
2019-02-07T12:40:51.713Z,0.37
2019-02-07T12:44:08.416Z,0.30
2019-02-07T12:47:12.460Z,0.70
2019-02-07T12:50:22.723Z,0.30
2019-02-07T12:53:21.258Z,0.40
2019-02-07T12:56:31.300Z,0.97
2019-02-07T12:59:27.392Z,0.30
2019-02-07T13:02:29.214Z,0.30
2019-02-07T13:05:31.252Z,0.70
2019-02-07T13:08:33.972Z,0.63
2019-02-07T13:11:38.095Z,0.50
2019-02-07T13:14:56.731Z,0.30
2019-02-07T13:18:08.439Z,0.90
2019-02-07T13:21:15.920Z,0.40
2019-02-07T13:24:27.619Z,0.50
2019-02-07T13:27:44.985Z,0.50
2019-02-07T13:30:56.658Z,0.50
2019-02-07T13:34:01.354Z,0.40
2019-02-07T13:37:28.142Z,0.57
2019-02-07T13:40:32.895Z,0.37
2019-02-07T13:43:34.722Z,0.40
2019-02-07T13:46:52.310Z,0.30
2019-02-07T13:49:57.193Z,0.60
2019-02-07T13:53:16.271Z,0.53
2019-02-07T13:56:24.295Z,0.77
2019-02-07T13:59:29.367Z,0.80
2019-02-07T14:02:45.646Z,0.50
2019-02-07T14:05:59.609Z,0.73
2019-02-07T14:09:10.903Z,0.73
2019-02-07T14:12:13.060Z,0.60
2019-02-07T14:15:33.310Z,0.60
2019-02-07T14:18:35.978Z,0.50
2019-02-07T14:21:34.673Z,0.90
2019-02-07T14:24:43.540Z,0.67
2019-02-07T14:27:44.811Z,0.30
2019-02-07T14:31:06.194Z,0.30
2019-02-07T14:34:16.067Z,0.67
2019-02-07T14:37:37.250Z,0.70
2019-02-07T14:40:33.310Z,1.73
2019-02-07T14:43:38.232Z,0.57
2019-02-07T14:46:39.634Z,0.53
2019-02-07T14:49:41.043Z,0.60
2019-02-07T14:52:35.063Z,0.30
2019-02-07T14:55:37.842Z,0.50
2019-02-07T14:58:32.471Z,0.30
2019-02-07T15:01:33.254Z,0.50
2019-02-07T15:04:27.894Z,0.33
2019-02-07T15:07:30.785Z,0.70
2019-02-07T15:10:26.282Z,0.43
2019-02-07T15:13:28.221Z,0.77
2019-02-07T15:16:37.205Z,0.40
2019-02-07T15:19:38.121Z,0.63
2019-02-07T15:22:32.211Z,0.23
2019-02-07T15:25:33.483Z,0.90
2019-02-07T15:28:27.946Z,0.57
2019-02-07T15:31:29.851Z,0.80
2019-02-07T15:34:24.212Z,0.67
2019-02-07T15:37:25.871Z,0.50
2019-02-07T15:40:22.011Z,0.70
2019-02-07T15:43:23.476Z,0.40
2019-02-07T15:46:19.410Z,0.30
2019-02-07T15:49:19.967Z,0.50
2019-02-07T15:52:14.003Z,0.47
2019-02-07T15:55:15.401Z,1.43
2019-02-07T15:58:09.564Z,0.70
2019-02-07T16:01:14.729Z,0.80
2019-02-07T16:04:24.111Z,0.60
2019-02-07T16:07:28.209Z,0.87
2019-02-07T16:10:23.565Z,0.80
2019-02-07T16:13:33.398Z,0.40
2019-02-07T16:16:27.962Z,0.63
2019-02-07T16:19:28.551Z,0.60
2019-02-07T16:22:36.854Z,1.43
2019-02-07T16:25:38.233Z,0.97
2019-02-07T16:28:32.493Z,0.80
2019-02-07T16:31:35.211Z,1.40
2019-02-07T16:34:29.889Z,0.60
2019-02-07T16:37:31.671Z,0.67
2019-02-07T16:40:27.338Z,1.67
2019-02-07T16:43:32.822Z,1.10
2019-02-07T16:46:27.623Z,1.13
2019-02-07T16:49:29.327Z,1.53
2019-02-07T16:52:23.182Z,2.13
2019-02-07T16:55:25.575Z,0.80
2019-02-07T16:58:19.919Z,1.47
2019-02-07T17:01:21.659Z,1.17
2019-02-07T17:04:15.217Z,0.50
2019-02-07T17:07:17.280Z,4.23
2019-02-07T17:10:12.796Z,6.13
2019-02-07T17:13:14.933Z,2.13
2019-02-07T17:16:09.411Z,1.03
2019-02-07T17:19:10.286Z,1.27
2019-02-07T17:22:04.026Z,0.97
2019-02-07T17:25:05.725Z,2.07
2019-02-07T17:28:12.360Z,1.27
2019-02-07T17:31:13.431Z,0.83
2019-02-07T17:34:07.155Z,0.67
2019-02-07T17:37:08.704Z,1.57
2019-02-07T17:40:04.801Z,1.37
2019-02-07T17:43:09.226Z,0.77
2019-02-07T17:46:02.989Z,1.17
2019-02-07T17:49:04.647Z,0.70
2019-02-07T17:51:58.506Z,0.87
2019-02-07T17:55:00.202Z,0.57
2019-02-07T17:57:54.276Z,0.87
2019-02-07T18:00:58.822Z,1.67
2019-02-07T18:03:53.000Z,0.80
2019-02-07T18:06:54.098Z,2.00
2019-02-07T18:09:48.745Z,1.30
2019-02-07T18:12:49.518Z,1.40
2019-02-07T18:15:43.286Z,1.07
2019-02-07T18:18:45.075Z,1.10
2019-02-07T18:21:38.888Z,1.10
2019-02-07T18:24:42.952Z,1.70
2019-02-07T18:27:36.876Z,1.73
2019-02-07T18:30:38.196Z,1.23
2019-02-07T18:33:33.898Z,1.70
2019-02-07T18:36:35.422Z,1.90
2019-02-07T18:39:30.913Z,1.43
2019-02-07T18:42:31.727Z,1.13
2019-02-07T18:45:26.560Z,1.70
2019-02-07T18:48:27.548Z,1.60
2019-02-07T18:51:20.844Z,1.30
2019-02-07T18:54:22.476Z,1.90
2019-02-07T18:57:16.889Z,1.67
2019-02-07T19:00:19.669Z,1.80
2019-02-07T19:03:14.774Z,1.43
2019-02-07T19:06:18.739Z,1.47
2019-02-07T19:09:14.678Z,1.53
2019-02-07T19:12:18.016Z,1.60
2019-02-07T19:15:14.586Z,2.20
2019-02-07T19:18:16.006Z,1.87
2019-02-07T19:21:10.610Z,2.07
2019-02-07T19:24:11.951Z,2.83
2019-02-07T19:27:05.883Z,2.40
2019-02-07T19:30:07.084Z,1.90
2019-02-07T19:33:01.535Z,2.53
2019-02-07T19:36:03.175Z,2.83
2019-02-07T19:38:56.824Z,2.03
2019-02-07T19:41:57.778Z,3.57
2019-02-07T19:44:51.639Z,3.37
2019-02-07T19:47:55.274Z,1.87
2019-02-07T19:50:49.901Z,3.40
2019-02-07T19:53:51.348Z,3.10
2019-02-07T19:56:44.814Z,2.47
2019-02-07T19:59:45.566Z,1.63
2019-02-07T20:02:39.118Z,1.67
2019-02-07T20:05:41.109Z,2.47
2019-02-07T20:08:35.540Z,3.43
2019-02-07T20:11:36.199Z,2.63
2019-02-07T20:14:37.040Z,2.77
2019-02-07T20:17:31.563Z,2.80
2019-02-07T20:20:26.083Z,2.00
2019-02-07T20:23:30.374Z,3.43
2019-02-07T20:26:38.503Z,2.27
2019-02-07T20:29:40.249Z,3.20
2019-02-07T20:32:34.548Z,1.90
2019-02-07T20:35:36.220Z,1.93
2019-02-07T20:38:29.950Z,3.13
2019-02-07T20:41:31.490Z,2.27
2019-02-07T20:44:25.858Z,2.97
2019-02-07T20:47:26.661Z,2.50
2019-02-07T20:50:22.245Z,2.07
2019-02-07T20:53:23.880Z,2.77
2019-02-07T20:56:19.464Z,2.03
2019-02-07T20:59:21.259Z,2.23
2019-02-07T21:02:14.749Z,2.53
2019-02-07T21:05:18.531Z,4.43
2019-02-07T21:08:34.091Z,3.30
2019-02-07T21:11:34.791Z,3.37
2019-02-07T21:14:31.177Z,3.33
2019-02-07T21:17:32.329Z,2.70
2019-02-07T21:20:27.785Z,3.07
2019-02-07T21:23:28.523Z,3.13
2019-02-07T21:26:22.819Z,3.33
2019-02-07T21:29:24.527Z,3.80
2019-02-07T21:32:18.863Z,3.23
2019-02-07T21:35:21.175Z,2.60
2019-02-07T21:38:17.953Z,3.73
2019-02-07T21:41:19.112Z,2.47
2019-02-07T21:44:14.671Z,3.13
2019-02-07T21:47:15.921Z,2.53
2019-02-07T21:50:14.155Z,4.83
2019-02-07T21:53:15.337Z,3.23
2019-02-07T21:56:16.031Z,2.27
2019-02-07T21:59:11.779Z,2.70
2019-02-07T22:02:07.479Z,2.53
2019-02-07T22:05:08.181Z,2.40
2019-02-07T22:08:17.267Z,4.27
2019-02-07T22:11:18.949Z,3.10
2019-02-07T22:14:12.225Z,3.13
2019-02-07T22:17:13.923Z,3.13
2019-02-07T22:20:07.545Z,3.20
2019-02-07T22:23:09.084Z,3.70
2019-02-07T22:26:02.677Z,2.20
2019-02-07T22:29:04.345Z,2.57
2019-02-07T22:31:58.589Z,2.20
2019-02-07T22:34:59.559Z,2.13
2019-02-07T22:37:52.975Z,2.00
2019-02-07T22:40:54.637Z,2.43
2019-02-07T22:43:48.813Z,2.13
2019-02-07T22:46:50.125Z,3.23
2019-02-07T22:49:45.793Z,3.83
2019-02-07T22:52:47.146Z,3.63
2019-02-07T22:55:41.113Z,4.13
2019-02-07T22:58:41.849Z,3.13
2019-02-07T23:01:35.557Z,2.23
2019-02-07T23:04:37.361Z,3.53
2019-02-07T23:07:31.137Z,2.20
2019-02-07T23:10:32.426Z,2.90
2019-02-07T23:13:26.883Z,2.60
2019-02-07T23:16:28.115Z,2.63
2019-02-07T23:19:24.548Z,2.10
2019-02-07T23:22:26.349Z,1.80
2019-02-07T23:25:19.992Z,3.07
2019-02-07T23:31:19.973Z,1.90
2019-02-07T23:34:20.333Z,4.20
2019-02-07T23:37:20.680Z,2.53
2019-02-07T23:40:16.951Z,2.73
2019-02-07T23:43:11.128Z,2.10
2019-02-07T23:46:12.035Z,2.13
2019-02-07T23:49:23.356Z,1.80
2019-02-07T23:52:25.322Z,3.47
2019-02-07T23:55:20.886Z,3.43
